Time;durP1;ratioP1;P1;durP2;ratioP2;P2;SDS_P1;SDS_P2;PMS_P1;PMS_P2;Temp;Humidity;BMP_temperature;BMP_pressure;BME280_temperature;BME280_humidity;BME280_pressure;Samples;Min_cycle;Max_cycle;Signal;HPM_P1;HPM_P2
2022/01/31 00:00:24;;;;;;;21.00;9.27;;;;;;;;;;5093916;28;20031;-56
2022/01/31 00:02:51;;;;;;;25.10;9.15;;;;;;;;;;5093834;28;20076;-55
2022/01/31 00:05:17;;;;;;;21.38;8.95;;;;;;;;;;5094026;28;20429;-58
2022/01/31 00:07:44;;;;;;;23.77;10.68;;;;;;;;;;5093808;28;20028;-59
2022/01/31 00:10:12;;;;;;;22.13;9.07;;;;;;;;;;5094111;28;20025;-55
2022/01/31 00:12:50;;;;;;;20.83;9.85;;;;;;;;;;5093468;28;20032;-59
2022/01/31 00:15:16;;;;;;;19.98;9.80;;;;;;;;;;5094306;28;20067;-58
2022/01/31 00:17:42;;;;;;;23.75;10.05;;;;;;;;;;5093701;28;20016;-57
2022/01/31 00:20:08;;;;;;;28.92;11.52;;;;;;;;;;5088826;28;20031;-57
2022/01/31 00:22:35;;;;;;;30.45;11.35;;;;;;;;;;5074156;28;20416;-58
2022/01/31 00:25:01;;;;;;;24.70;11.32;;;;;;;;;;5074003;28;20042;-59
2022/01/31 00:27:27;;;;;;;23.15;8.98;;;;;;;;;;5081568;28;20016;-58
2022/01/31 00:29:53;;;;;;;18.27;7.78;;;;;;;;;;5093848;28;20099;-59
2022/01/31 00:32:19;;;;;;;19.60;8.10;;;;;;;;;;5093491;28;20095;-57
2022/01/31 00:34:45;;;;;;;20.80;7.75;;;;;;;;;;5090702;28;20032;-56
2022/01/31 00:37:11;;;;;;;17.67;7.63;;;;;;;;;;5073595;28;20029;-56
2022/01/31 00:39:37;;;;;;;18.27;8.15;;;;;;;;;;5073555;28;20032;-56
2022/01/31 00:42:06;;;;;;;16.02;7.13;;;;;;;;;;5072981;28;20104;-58
2022/01/31 00:44:46;;;;;;;16.40;7.00;;;;;;;;;;5073374;28;20025;-58
2022/01/31 00:47:18;;;;;;;13.77;6.43;;;;;;;;;;5073877;28;20061;-57
2022/01/31 00:52:41;;;;;;;18.20;7.43;;;;;;;;;;5059694;28;20066;-56
2022/01/31 00:55:08;;;;;;;15.45;7.50;;;;;;;;;;5073033;28;20116;-58
2022/01/31 00:57:35;;;;;;;17.83;7.40;;;;;;;;;;5073221;28;20038;-59
2022/01/31 01:00:01;;;;;;;15.38;6.93;;;;;;;;;;5073329;28;20020;-59
2022/01/31 01:02:27;;;;;;;14.80;7.05;;;;;;;;;;5073100;28;20031;-56
2022/01/31 01:04:53;;;;;;;17.60;6.72;;;;;;;;;;5073319;28;20025;-56
2022/01/31 01:07:19;;;;;;;17.25;6.75;;;;;;;;;;5073305;28;20025;-55
2022/01/31 01:09:46;;;;;;;19.13;7.45;;;;;;;;;;5072953;28;20099;-55
2022/01/31 01:12:13;;;;;;;19.55;6.40;;;;;;;;;;5072844;28;20029;-56
2022/01/31 01:14:40;;;;;;;14.63;6.25;;;;;;;;;;5072881;28;20025;-56
2022/01/31 01:17:07;;;;;;;14.75;6.15;;;;;;;;;;5072519;28;20373;-55
2022/01/31 01:19:33;;;;;;;16.88;6.45;;;;;;;;;;5072871;28;20028;-57
2022/01/31 01:21:59;;;;;;;11.95;6.00;;;;;;;;;;5072620;28;20024;-57
2022/01/31 01:24:25;;;;;;;16.67;6.55;;;;;;;;;;5072921;28;20553;-56
2022/01/31 01:26:52;;;;;;;18.67;6.35;;;;;;;;;;5072766;28;20465;-59
2022/01/31 01:29:19;;;;;;;14.30;5.93;;;;;;;;;;5072463;28;20025;-56
2022/01/31 01:31:47;;;;;;;11.73;5.15;;;;;;;;;;5072661;28;20025;-55
2022/01/31 01:34:13;;;;;;;12.45;5.03;;;;;;;;;;5072699;28;20021;-58
2022/01/31 01:36:41;;;;;;;12.52;5.15;;;;;;;;;;5072466;28;20029;-56
2022/01/31 01:39:08;;;;;;;11.68;5.00;;;;;;;;;;5072992;28;20028;-54
2022/01/31 01:41:34;;;;;;;15.68;5.28;;;;;;;;;;5072967;28;20044;-57
2022/01/31 01:44:00;;;;;;;10.95;4.43;;;;;;;;;;5072683;28;20024;-57
2022/01/31 01:46:26;;;;;;;10.90;4.70;;;;;;;;;;5073289;28;20111;-57
2022/01/31 01:48:52;;;;;;;15.30;5.25;;;;;;;;;;5076532;28;20031;-56
2022/01/31 01:51:19;;;;;;;12.95;5.13;;;;;;;;;;5076094;28;20024;-54
2022/01/31 01:53:45;;;;;;;17.33;5.35;;;;;;;;;;5076013;28;20086;-55
2022/01/31 01:56:13;;;;;;;13.88;4.45;;;;;;;;;;5076582;28;20078;-58
2022/01/31 01:58:42;;;;;;;13.60;5.35;;;;;;;;;;5075503;28;20492;-57
2022/01/31 02:01:09;;;;;;;16.50;5.32;;;;;;;;;;5075857;28;20438;-55
2022/01/31 02:03:36;;;;;;;12.63;5.28;;;;;;;;;;5076543;28;20028;-57
2022/01/31 02:06:03;;;;;;;14.93;4.93;;;;;;;;;;5075543;28;20029;-57
2022/01/31 02:08:39;;;;;;;12.45;4.60;;;;;;;;;;5075919;28;20119;-55
2022/01/31 02:11:06;;;;;;;12.27;5.60;;;;;;;;;;5075780;28;20035;-55
2022/01/31 02:13:32;;;;;;;10.13;4.97;;;;;;;;;;5076138;28;20024;-56
2022/01/31 02:15:58;;;;;;;12.55;5.15;;;;;;;;;;5075947;28;20028;-56
2022/01/31 02:18:27;;;;;;;14.20;4.65;;;;;;;;;;5075260;28;20032;-54
2022/01/31 02:20:53;;;;;;;11.15;4.35;;;;;;;;;;5075913;28;20441;-57
2022/01/31 02:23:21;;;;;;;42.05;16.17;;;;;;;;;;5075775;28;20423;-59
2022/01/31 02:25:58;;;;;;;18.80;7.25;;;;;;;;;;5075504;28;20040;-57
2022/01/31 02:28:25;;;;;;;10.80;4.78;;;;;;;;;;5078026;28;20073;-58
2022/01/31 02:30:52;;;;;;;13.10;4.88;;;;;;;;;;5075923;28;20044;-54
2022/01/31 02:33:19;;;;;;;12.15;4.68;;;;;;;;;;5091417;28;20036;-58
2022/01/31 02:35:46;;;;;;;12.18;4.05;;;;;;;;;;5090822;28;20028;-56
2022/01/31 02:38:12;;;;;;;13.55;5.00;;;;;;;;;;5075275;28;20477;-57
2022/01/31 02:40:38;;;;;;;15.48;5.10;;;;;;;;;;5075203;28;20056;-57
2022/01/31 02:43:05;;;;;;;11.32;4.75;;;;;;;;;;5075168;28;20032;-56
2022/01/31 02:45:31;;;;;;;12.70;4.30;;;;;;;;;;5075595;28;20373;-52
2022/01/31 02:48:00;;;;;;;15.30;5.05;;;;;;;;;;5075370;28;20032;-59
2022/01/31 02:50:26;;;;;;;10.30;3.85;;;;;;;;;;5074964;28;20027;-55
2022/01/31 02:55:37;;;;;;;11.82;4.32;;;;;;;;;;5074890;28;20472;-58
2022/01/31 02:58:03;;;;;;;13.52;4.63;;;;;;;;;;5074646;28;20074;-61
2022/01/31 03:00:29;;;;;;;16.02;5.60;;;;;;;;;;5074607;28;20039;-55
2022/01/31 03:02:56;;;;;;;15.38;4.55;;;;;;;;;;5075120;28;20030;-56
2022/01/31 03:05:22;;;;;;;14.60;4.97;;;;;;;;;;5075024;28;20023;-55
2022/01/31 03:07:48;;;;;;;19.23;6.40;;;;;;;;;;5074655;28;20025;-56
2022/01/31 03:10:14;;;;;;;12.70;4.90;;;;;;;;;;5074947;28;20019;-57
2022/01/31 03:12:40;;;;;;;17.73;5.53;;;;;;;;;;5075192;28;20017;-55
2022/01/31 03:15:06;;;;;;;17.23;4.80;;;;;;;;;;5074440;28;20021;-58
2022/01/31 03:17:32;;;;;;;11.02;4.85;;;;;;;;;;5074467;28;20035;-53
2022/01/31 03:19:59;;;;;;;16.80;6.13;;;;;;;;;;5074987;28;20119;-56
2022/01/31 03:22:25;;;;;;;18.95;7.18;;;;;;;;;;5092427;28;20123;-56
2022/01/31 03:24:51;;;;;;;16.52;6.15;;;;;;;;;;5094974;28;20058;-56
2022/01/31 03:27:17;;;;;;;21.15;7.63;;;;;;;;;;5094558;28;20099;-55
2022/01/31 03:29:44;;;;;;;25.33;8.45;;;;;;;;;;5094227;28;20119;-55
2022/01/31 03:32:10;;;;;;;22.52;8.43;;;;;;;;;;5094522;28;20032;-53
2022/01/31 03:34:36;;;;;;;24.83;9.55;;;;;;;;;;5094926;28;20031;-56
2022/01/31 03:37:03;;;;;;;18.55;6.38;;;;;;;;;;5094042;28;20020;-53
2022/01/31 03:39:29;;;;;;;19.67;7.07;;;;;;;;;;5094572;28;20142;-55
2022/01/31 03:41:55;;;;;;;22.77;8.15;;;;;;;;;;5094446;28;20476;-54
2022/01/31 03:44:21;;;;;;;22.92;6.85;;;;;;;;;;5093948;28;20028;-57
2022/01/31 03:46:47;;;;;;;32.85;10.32;;;;;;;;;;5094796;28;20345;-58
2022/01/31 03:49:13;;;;;;;11.23;5.55;;;;;;;;;;5094114;28;20107;-56
2022/01/31 03:51:40;;;;;;;14.82;5.85;;;;;;;;;;5094737;28;20020;-54
2022/01/31 03:54:06;;;;;;;21.75;6.40;;;;;;;;;;5094582;28;20032;-57
2022/01/31 03:56:32;;;;;;;19.23;6.45;;;;;;;;;;5094028;28;20073;-56
2022/01/31 03:58:58;;;;;;;17.55;6.05;;;;;;;;;;5094562;28;20043;-55
2022/01/31 04:01:26;;;;;;;14.13;5.22;;;;;;;;;;5093945;28;20028;-58
2022/01/31 04:03:52;;;;;;;19.92;6.78;;;;;;;;;;5093931;28;20028;-55
2022/01/31 04:06:18;;;;;;;27.25;7.72;;;;;;;;;;5093874;28;20027;-57
2022/01/31 04:08:44;;;;;;;17.67;6.35;;;;;;;;;;5093918;28;20024;-56
2022/01/31 04:11:10;;;;;;;15.82;4.07;;;;;;;;;;5093089;28;20024;-57
2022/01/31 04:13:37;;;;;;;13.38;4.22;;;;;;;;;;5094234;28;20032;-58
2022/01/31 04:16:03;;;;;;;11.32;3.55;;;;;;;;;;5093747;28;20024;-55
2022/01/31 04:18:29;;;;;;;13.35;4.90;;;;;;;;;;5093710;28;20085;-56
2022/01/31 04:20:56;;;;;;;12.50;4.55;;;;;;;;;;5093669;28;20031;-55
2022/01/31 04:23:25;;;;;;;16.63;5.15;;;;;;;;;;5093420;28;20048;-53
2022/01/31 04:25:55;;;;;;;11.60;5.00;;;;;;;;;;5093115;28;20028;-54
2022/01/31 04:28:31;;;;;;;12.65;5.22;;;;;;;;;;5093499;28;20103;-56
2022/01/31 04:31:01;;;;;;;12.98;4.28;;;;;;;;;;5093522;28;20469;-54
2022/01/31 04:33:27;;;;;;;11.27;4.00;;;;;;;;;;5093644;28;20032;-52
2022/01/31 04:35:54;;;;;;;6.65;3.40;;;;;;;;;;5092376;28;20026;-51
2022/01/31 04:38:21;;;;;;;11.18;3.60;;;;;;;;;;5091846;28;20048;-53
2022/01/31 04:40:47;;;;;;;11.40;3.85;;;;;;;;;;5093746;28;20043;-50
2022/01/31 04:43:13;;;;;;;9.70;3.92;;;;;;;;;;5093828;28;20027;-54
2022/01/31 04:45:46;;;;;;;10.95;4.38;;;;;;;;;;5093348;28;20027;-57
2022/01/31 04:48:14;;;;;;;11.60;3.95;;;;;;;;;;5093425;28;20369;-54
2022/01/31 04:50:40;;;;;;;34.10;12.82;;;;;;;;;;5084170;28;20111;-54
2022/01/31 04:53:06;;;;;;;17.27;8.38;;;;;;;;;;5072296;28;20066;-57
2022/01/31 04:55:32;;;;;;;13.55;4.35;;;;;;;;;;5073411;28;20086;-54
2022/01/31 04:57:59;;;;;;;18.02;4.43;;;;;;;;;;5073277;28;20024;-57
2022/01/31 05:00:25;;;;;;;10.05;4.07;;;;;;;;;;5072764;28;20058;-56
2022/01/31 05:02:51;;;;;;;14.98;4.50;;;;;;;;;;5073354;28;20021;-54
2022/01/31 05:05:18;;;;;;;11.55;4.45;;;;;;;;;;5073385;28;20036;-58
2022/01/31 05:07:44;;;;;;;13.32;5.40;;;;;;;;;;5072961;28;20069;-53
2022/01/31 05:10:10;;;;;;;16.77;5.07;;;;;;;;;;5073223;28;20024;-57
2022/01/31 05:12:36;;;;;;;15.25;4.68;;;;;;;;;;5073863;28;20365;-57
2022/01/31 05:15:03;;;;;;;17.23;5.45;;;;;;;;;;5072592;28;20024;-56
2022/01/31 05:17:29;;;;;;;10.00;3.47;;;;;;;;;;5073367;28;20028;-56
2022/01/31 05:19:55;;;;;;;11.93;3.80;;;;;;;;;;5073523;28;20081;-53
2022/01/31 05:22:21;;;;;;;12.80;3.90;;;;;;;;;;5074501;28;20040;-56
2022/01/31 05:24:47;;;;;;;13.10;4.15;;;;;;;;;;5077570;28;20054;-56
2022/01/31 05:27:14;;;;;;;19.02;5.13;;;;;;;;;;5075841;28;20046;-57
2022/01/31 05:29:40;;;;;;;15.15;5.88;;;;;;;;;;5076219;28;20487;-56
2022/01/31 05:32:07;;;;;;;13.30;5.63;;;;;;;;;;5076364;28;20029;-58
2022/01/31 05:34:33;;;;;;;13.80;5.72;;;;;;;;;;5076317;28;20032;-56
2022/01/31 05:36:59;;;;;;;38.53;14.00;;;;;;;;;;5076458;28;20099;-53
2022/01/31 05:39:25;;;;;;;46.28;19.33;;;;;;;;;;5076476;28;20029;-58
2022/01/31 05:41:52;;;;;;;46.45;19.00;;;;;;;;;;5076193;28;20017;-57
2022/01/31 05:44:19;;;;;;;28.48;14.18;;;;;;;;;;5076293;28;20032;-56
2022/01/31 05:46:45;;;;;;;24.67;9.13;;;;;;;;;;5076358;28;20523;-56
2022/01/31 05:49:11;;;;;;;19.50;7.13;;;;;;;;;;5075234;28;20117;-55
2022/01/31 05:51:41;;;;;;;21.55;7.85;;;;;;;;;;5075868;28;20482;-58
2022/01/31 05:54:07;;;;;;;17.67;6.93;;;;;;;;;;5076206;28;20024;-57
2022/01/31 05:56:33;;;;;;;17.15;6.50;;;;;;;;;;5075887;28;20028;-56
2022/01/31 05:58:59;;;;;;;15.32;6.82;;;;;;;;;;5076014;28;20103;-55
2022/01/31 06:01:25;;;;;;;18.98;7.10;;;;;;;;;;5075953;28;20020;-54
2022/01/31 06:03:52;;;;;;;26.13;10.27;;;;;;;;;;5075897;28;20039;-57
2022/01/31 06:06:18;;;;;;;16.40;6.95;;;;;;;;;;5075693;28;20535;-56
2022/01/31 06:08:44;;;;;;;31.67;11.35;;;;;;;;;;5076059;28;20108;-57
2022/01/31 06:11:10;;;;;;;46.15;18.02;;;;;;;;;;5074425;28;20021;-58
2022/01/31 06:13:36;;;;;;;56.92;22.35;;;;;;;;;;5075591;28;20029;-57
2022/01/31 06:16:02;;;;;;;59.47;21.10;;;;;;;;;;5075658;28;20100;-55
2022/01/31 06:18:29;;;;;;;43.28;16.45;;;;;;;;;;5075558;28;20466;-55
2022/01/31 06:20:55;;;;;;;27.42;11.35;;;;;;;;;;5075778;28;20090;-55
2022/01/31 06:23:21;;;;;;;29.50;10.93;;;;;;;;;;5075052;28;20052;-53
2022/01/31 06:25:48;;;;;;;36.47;14.65;;;;;;;;;;5076321;28;20120;-56
2022/01/31 06:28:15;;;;;;;24.85;9.77;;;;;;;;;;5078257;28;20024;-56
2022/01/31 06:30:41;;;;;;;56.40;21.20;;;;;;;;;;5075281;28;20020;-56
2022/01/31 06:33:07;;;;;;;41.70;14.43;;;;;;;;;;5075179;28;20013;-54
2022/01/31 06:35:33;;;;;;;32.70;10.65;;;;;;;;;;5075807;28;20106;-57
2022/01/31 06:37:59;;;;;;;41.00;16.48;;;;;;;;;;5075272;28;20025;-55
2022/01/31 06:40:25;;;;;;;27.40;9.45;;;;;;;;;;5075216;28;20032;-53
2022/01/31 06:42:51;;;;;;;33.85;12.23;;;;;;;;;;5093900;28;20086;-57
2022/01/31 06:45:18;;;;;;;34.42;11.50;;;;;;;;;;5095314;28;20030;-55
2022/01/31 06:47:44;;;;;;;24.73;8.15;;;;;;;;;;5095307;28;20024;-56
2022/01/31 06:50:10;;;;;;;25.17;9.93;;;;;;;;;;5095229;28;20373;-56
2022/01/31 06:52:37;;;;;;;27.63;9.95;;;;;;;;;;5094951;28;20025;-54
2022/01/31 06:55:05;;;;;;;20.55;8.73;;;;;;;;;;5095363;28;20031;-54
2022/01/31 06:57:36;;;;;;;24.88;8.68;;;;;;;;;;5096144;28;20024;-58
2022/01/31 07:00:06;;;;;;;25.52;10.82;;;;;;;;;;5094743;28;20020;-59
2022/01/31 07:02:32;;;;;;;32.58;10.77;;;;;;;;;;5094081;28;20050;-58
2022/01/31 07:05:02;;;;;;;27.17;10.30;;;;;;;;;;5095032;28;20116;-57
2022/01/31 07:07:28;;;;;;;18.77;8.00;;;;;;;;;;5094960;28;20070;-60
2022/01/31 07:09:55;;;;;;;22.95;8.75;;;;;;;;;;5095111;28;20031;-56
2022/01/31 07:12:28;;;;;;;22.73;9.10;;;;;;;;;;5094796;28;20024;-54
2022/01/31 07:14:54;;;;;;;25.75;8.73;;;;;;;;;;5094707;28;20028;-58
2022/01/31 07:17:20;;;;;;;23.30;9.38;;;;;;;;;;5094973;28;20031;-56
2022/01/31 07:19:47;;;;;;;24.38;9.38;;;;;;;;;;5094347;28;20026;-59
2022/01/31 07:22:14;;;;;;;25.88;10.45;;;;;;;;;;5087165;28;20080;-57
2022/01/31 07:27:06;;;;;;;24.60;10.85;;;;;;;;;;5074313;28;20042;-54
2022/01/31 07:29:33;;;;;;;29.60;10.63;;;;;;;;;;5074121;28;20025;-54
2022/01/31 07:31:59;;;;;;;19.92;9.18;;;;;;;;;;5074894;28;20027;-56
2022/01/31 07:34:26;;;;;;;26.20;9.50;;;;;;;;;;5091675;28;20376;-58
2022/01/31 07:36:53;;;;;;;23.80;9.85;;;;;;;;;;5093024;28;20461;-57
2022/01/31 07:39:19;;;;;;;26.67;11.13;;;;;;;;;;5092627;28;20763;-54
2022/01/31 07:41:46;;;;;;;27.17;12.52;;;;;;;;;;5093482;28;20047;-57
2022/01/31 07:44:13;;;;;;;34.90;13.60;;;;;;;;;;5093717;28;20024;-57
2022/01/31 07:46:39;;;;;;;35.45;13.50;;;;;;;;;;5094502;28;20028;-59
2022/01/31 07:49:06;;;;;;;40.20;14.32;;;;;;;;;;5093831;28;20020;-58
2022/01/31 07:51:34;;;;;;;33.45;13.23;;;;;;;;;;5093386;28;20027;-58
2022/01/31 07:54:00;;;;;;;27.52;11.38;;;;;;;;;;5093491;28;20028;-49
2022/01/31 07:56:26;;;;;;;30.77;14.43;;;;;;;;;;5093791;28;20115;-53
2022/01/31 07:58:52;;;;;;;18.77;8.57;;;;;;;;;;5094226;28;20061;-52
2022/01/31 08:01:19;;;;;;;23.17;10.02;;;;;;;;;;5093876;28;20822;-58
2022/01/31 08:03:47;;;;;;;19.15;7.18;;;;;;;;;;5093924;28;20024;-49
2022/01/31 08:06:13;;;;;;;17.98;6.95;;;;;;;;;;5094053;28;20524;-57
2022/01/31 08:08:39;;;;;;;17.00;6.82;;;;;;;;;;5093707;28;20062;-55
2022/01/31 08:11:06;;;;;;;21.20;7.85;;;;;;;;;;5094003;28;20028;-60
2022/01/31 08:13:33;;;;;;;33.42;13.88;;;;;;;;;;5093816;28;20590;-58
2022/01/31 08:16:09;;;;;;;55.03;21.67;;;;;;;;;;5093356;28;20028;-55
2022/01/31 08:18:36;;;;;;;39.60;17.00;;;;;;;;;;5093921;28;20027;-55
2022/01/31 08:21:03;;;;;;;39.80;15.90;;;;;;;;;;5093026;28;20119;-55
2022/01/31 08:23:30;;;;;;;34.78;14.48;;;;;;;;;;5093146;28;20051;-56
2022/01/31 08:25:58;;;;;;;34.25;16.40;;;;;;;;;;5093752;28;20376;-53
2022/01/31 08:28:33;;;;;;;37.50;18.63;;;;;;;;;;5092889;28;20016;-56
2022/01/31 08:31:08;;;;;;;37.30;17.00;;;;;;;;;;5093102;28;20020;-54
2022/01/31 08:33:38;;;;;;;39.17;16.80;;;;;;;;;;5093083;28;20443;-53
2022/01/31 08:36:06;;;;;;;39.90;17.67;;;;;;;;;;5093483;28;20039;-54
2022/01/31 08:38:32;;;;;;;54.38;30.40;;;;;;;;;;5093515;28;20029;-52
2022/01/31 08:40:59;;;;;;;59.97;30.75;;;;;;;;;;5093361;28;20372;-50
2022/01/31 08:43:25;;;;;;;62.45;31.80;;;;;;;;;;5093649;28;20418;-54
2022/01/31 08:45:55;;;;;;;56.92;28.92;;;;;;;;;;5093577;28;20028;-54
2022/01/31 08:48:21;;;;;;;53.95;26.38;;;;;;;;;;5092969;28;20059;-50
2022/01/31 08:50:47;;;;;;;57.10;29.20;;;;;;;;;;5091995;28;20029;-56
2022/01/31 08:53:14;;;;;;;56.70;28.83;;;;;;;;;;5093364;28;20163;-54
2022/01/31 08:55:42;;;;;;;53.72;26.33;;;;;;;;;;5094002;28;20031;-55
2022/01/31 08:58:10;;;;;;;49.28;25.30;;;;;;;;;;5096315;28;20028;-57
2022/01/31 09:00:37;;;;;;;46.58;22.63;;;;;;;;;;5096211;28;20473;-57
2022/01/31 09:03:39;;;;;;;41.78;19.98;;;;;;;;;;5097288;28;20031;-53
2022/01/31 09:05:53;;;;;;;38.03;18.77;;;;;;;;;;5094708;28;20480;-52
2022/01/31 09:08:19;;;;;;;35.63;16.98;;;;;;;;;;5097513;28;20448;-49
2022/01/31 09:10:45;;;;;;;32.45;14.18;;;;;;;;;;5097758;28;20030;-55
2022/01/31 09:13:13;;;;;;;27.13;12.70;;;;;;;;;;5097297;28;20376;-54
2022/01/31 09:15:40;;;;;;;34.47;12.38;;;;;;;;;;5097893;28;20028;-54
2022/01/31 09:18:07;;;;;;;19.48;10.13;;;;;;;;;;5097057;28;20024;-51
2022/01/31 09:20:33;;;;;;;23.52;10.38;;;;;;;;;;5097042;28;20031;-55
2022/01/31 09:23:01;;;;;;;22.33;9.75;;;;;;;;;;5096573;28;20404;-59
2022/01/31 09:25:28;;;;;;;20.38;8.15;;;;;;;;;;5096908;28;20321;-55
2022/01/31 09:27:55;;;;;;;24.58;12.43;;;;;;;;;;5096197;28;20028;-55
2022/01/31 09:30:22;;;;;;;25.98;10.50;;;;;;;;;;5096325;28;20034;-52
2022/01/31 09:32:48;;;;;;;19.10;7.45;;;;;;;;;;5096894;28;20020;-48
2022/01/31 09:35:15;;;;;;;18.50;6.35;;;;;;;;;;5096750;28;20024;-51
2022/01/31 09:37:41;;;;;;;12.70;3.80;;;;;;;;;;5096531;28;20491;-49
2022/01/31 09:40:08;;;;;;;14.75;4.53;;;;;;;;;;5096270;28;20162;-52
2022/01/31 09:42:50;;;;;;;14.07;6.28;;;;;;;;;;5096599;28;20024;-50
2022/01/31 09:45:32;;;;;;;34.70;21.10;;;;;;;;;;5096364;28;20028;-48
2022/01/31 09:50:27;;;;;;;17.50;7.05;;;;;;;;;;5096694;28;20024;-51
2022/01/31 09:52:54;;;;;;;23.73;8.55;;;;;;;;;;5096509;28;20024;-52
2022/01/31 09:55:22;;;;;;;23.20;8.13;;;;;;;;;;5096188;28;20051;-54
2022/01/31 09:57:48;;;;;;;8.80;3.58;;;;;;;;;;5096427;28;20032;-50
2022/01/31 10:00:15;;;;;;;12.30;3.97;;;;;;;;;;5096218;28;20038;-55
2022/01/31 10:02:41;;;;;;;14.18;5.05;;;;;;;;;;5096527;28;20035;-51
2022/01/31 10:05:08;;;;;;;12.57;4.22;;;;;;;;;;5096231;28;20041;-53
2022/01/31 10:07:44;;;;;;;11.68;5.18;;;;;;;;;;5094783;28;20017;-49
2022/01/31 10:10:22;;;;;;;11.85;4.40;;;;;;;;;;5095358;28;20110;-49
2022/01/31 10:18:22;;;;;;;11.18;4.00;;;;;;;;;;5014028;28;20435;-51
2022/01/31 10:20:48;;;;;;;8.82;3.50;;;;;;;;;;5078984;28;20581;-52
2022/01/31 10:23:16;;;;;;;13.65;3.58;;;;;;;;;;5096284;28;20520;-52
2022/01/31 10:25:43;;;;;;;8.18;2.75;;;;;;;;;;5095697;28;20492;-50
2022/01/31 10:28:17;;;;;;;28.45;11.60;;;;;;;;;;5095378;28;20020;-51
2022/01/31 10:30:44;;;;;;;8.75;2.50;;;;;;;;;;5095790;28;20031;-53
2022/01/31 10:33:12;;;;;;;10.45;3.00;;;;;;;;;;5095295;28;20537;-53
2022/01/31 10:35:40;;;;;;;6.78;3.05;;;;;;;;;;5095390;28;20503;-49
2022/01/31 10:38:13;;;;;;;7.95;3.40;;;;;;;;;;5093692;28;20016;-52
2022/01/31 10:44:07;;;;;;;9.75;3.20;;;;;;;;;;5094931;28;20073;-53
2022/01/31 10:52:01;;;;;;;9.43;3.17;;;;;;;;;;5095547;28;20077;-50
2022/01/31 10:54:40;;;;;;;11.15;4.22;;;;;;;;;;5093902;28;20032;-50
2022/01/31 10:57:08;;;;;;;13.48;5.72;;;;;;;;;;5094754;28;20048;-54
2022/01/31 10:59:42;;;;;;;11.57;4.40;;;;;;;;;;5095217;28;20346;-52
2022/01/31 11:02:15;;;;;;;16.38;10.55;;;;;;;;;;5095081;28;20024;-48
2022/01/31 11:04:42;;;;;;;13.77;6.32;;;;;;;;;;5092765;28;20032;-53
2022/01/31 11:07:10;;;;;;;9.23;4.93;;;;;;;;;;5094985;28;20024;-51
2022/01/31 11:09:37;;;;;;;17.55;8.18;;;;;;;;;;5094079;28;20020;-54
2022/01/31 11:12:04;;;;;;;12.45;5.50;;;;;;;;;;5093092;28;20027;-54
2022/01/31 11:14:30;;;;;;;10.40;4.20;;;;;;;;;;5094081;28;20103;-54
2022/01/31 11:16:57;;;;;;;18.45;8.60;;;;;;;;;;5094728;28;20031;-52
2022/01/31 11:19:32;;;;;;;11.80;5.80;;;;;;;;;;5094663;28;20088;-53
2022/01/31 11:22:02;;;;;;;14.63;7.55;;;;;;;;;;5094333;28;20481;-50
2022/01/31 11:24:32;;;;;;;24.33;13.05;;;;;;;;;;5094537;28;20028;-53
2022/01/31 11:27:08;;;;;;;20.70;7.05;;;;;;;;;;5094320;28;20036;-50
2022/01/31 11:29:36;;;;;;;19.73;7.43;;;;;;;;;;5094622;28;20489;-47
2022/01/31 11:32:03;;;;;;;19.00;8.52;;;;;;;;;;5094251;28;20024;-50
2022/01/31 11:34:30;;;;;;;22.98;11.13;;;;;;;;;;5094208;28;20023;-55
2022/01/31 11:36:56;;;;;;;20.65;10.15;;;;;;;;;;5093168;28;20016;-50
2022/01/31 11:39:22;;;;;;;31.50;18.08;;;;;;;;;;5093594;28;20474;-48
2022/01/31 11:41:52;;;;;;;18.13;9.50;;;;;;;;;;5093636;28;20472;-53
2022/01/31 11:44:18;;;;;;;17.55;8.32;;;;;;;;;;5093883;28;20026;-51
2022/01/31 11:46:44;;;;;;;14.40;5.60;;;;;;;;;;5093488;28;20024;-51
2022/01/31 11:49:14;;;;;;;26.45;10.68;;;;;;;;;;5091058;28;20414;-52
2022/01/31 11:52:09;;;;;;;30.08;13.48;;;;;;;;;;5093689;28;20024;-45
2022/01/31 11:54:37;;;;;;;47.53;19.85;;;;;;;;;;5076450;28;20040;-52
2022/01/31 11:57:12;;;;;;;47.58;16.45;;;;;;;;;;5093495;28;20024;-50
2022/01/31 11:59:40;;;;;;;21.58;11.23;;;;;;;;;;5093564;28;20042;-51
2022/01/31 12:02:06;;;;;;;22.92;11.50;;;;;;;;;;5093113;28;20032;-54
2022/01/31 12:04:34;;;;;;;26.95;13.02;;;;;;;;;;5093201;28;20055;-45
2022/01/31 12:07:20;;;;;;;26.35;11.82;;;;;;;;;;5093580;28;20047;-54
2022/01/31 12:09:53;;;;;;;25.98;11.30;;;;;;;;;;5092312;28;20107;-54
2022/01/31 12:12:47;;;;;;;29.52;12.88;;;;;;;;;;5091442;28;20055;-55
2022/01/31 12:23:40;;;;;;;34.20;16.92;;;;;;;;;;5093210;28;20067;-52
2022/01/31 12:26:25;;;;;;;21.83;10.85;;;;;;;;;;5093983;28;20020;-52
2022/01/31 12:28:55;;;;;;;29.17;15.13;;;;;;;;;;5092970;28;20081;-54
2022/01/31 12:31:27;;;;;;;23.63;10.98;;;;;;;;;;5093197;28;20475;-51
2022/01/31 12:33:54;;;;;;;26.35;11.35;;;;;;;;;;5092924;28;20054;-54
2022/01/31 12:36:46;;;;;;;21.13;9.15;;;;;;;;;;5093352;28;20028;-52
2022/01/31 12:39:31;;;;;;;24.52;10.00;;;;;;;;;;5088716;28;20489;-55
2022/01/31 12:42:01;;;;;;;20.52;9.00;;;;;;;;;;5093162;28;20043;-48
2022/01/31 12:44:36;;;;;;;40.88;14.65;;;;;;;;;;5093675;28;20376;-55
2022/01/31 12:47:16;;;;;;;109.18;32.10;;;;;;;;;;5093701;28;20024;-51
2022/01/31 12:49:42;;;;;;;145.07;40.22;;;;;;;;;;5093176;28;20073;-52
2022/01/31 12:52:10;;;;;;;42.08;16.50;;;;;;;;;;5093559;28;20038;-54
2022/01/31 12:54:37;;;;;;;30.35;13.25;;;;;;;;;;5093467;28;20075;-47
2022/01/31 12:57:05;;;;;;;25.95;12.32;;;;;;;;;;5092942;28;20103;-55
2022/01/31 12:59:31;;;;;;;25.65;9.63;;;;;;;;;;5093201;28;20077;-54
2022/01/31 13:01:58;;;;;;;16.90;8.55;;;;;;;;;;5083681;28;20111;-50
2022/01/31 13:04:26;;;;;;;20.00;8.07;;;;;;;;;;5093961;28;20031;-50
2022/01/31 13:06:59;;;;;;;22.13;9.88;;;;;;;;;;5093453;28;20042;-51
2022/01/31 13:09:34;;;;;;;25.83;12.48;;;;;;;;;;5092906;28;20024;-55
2022/01/31 13:12:02;;;;;;;28.98;12.68;;;;;;;;;;5076136;28;20128;-53
2022/01/31 13:14:32;;;;;;;29.38;14.45;;;;;;;;;;5072563;28;20489;-49
2022/01/31 13:17:04;;;;;;;39.28;20.23;;;;;;;;;;5072822;28;20045;-52
2022/01/31 13:19:33;;;;;;;36.35;21.33;;;;;;;;;;5073026;28;20556;-49
2022/01/31 13:22:00;;;;;;;36.78;18.42;;;;;;;;;;5072606;28;20066;-46
2022/01/31 13:24:41;;;;;;;30.73;15.07;;;;;;;;;;5088618;28;20028;-55
2022/01/31 13:27:08;;;;;;;21.83;9.63;;;;;;;;;;5072834;28;20025;-51
2022/01/31 13:29:36;;;;;;;25.38;11.45;;;;;;;;;;5079178;28;20024;-52
2022/01/31 13:32:19;;;;;;;28.23;13.98;;;;;;;;;;5092903;28;20032;-52
2022/01/31 13:34:48;;;;;;;43.50;20.45;;;;;;;;;;5090672;28;20372;-49
2022/01/31 13:37:33;;;;;;;57.78;23.05;;;;;;;;;;5072260;28;20495;-55
2022/01/31 13:40:08;;;;;;;34.00;14.65;;;;;;;;;;5071767;28;20067;-53
2022/01/31 13:42:38;;;;;;;33.80;14.60;;;;;;;;;;5071907;28;20023;-53
2022/01/31 13:45:10;;;;;;;29.33;16.42;;;;;;;;;;5075896;28;20033;-53
2022/01/31 13:47:46;;;;;;;;;;;;;;;;;;5086275;28;20032;-51
2022/01/31 13:50:21;;;;;;;24.05;10.23;;;;;;;;;;5093315;28;19904;-55
2022/01/31 13:52:53;;;;;;;26.55;13.02;;;;;;;;;;5095273;28;20024;-53
2022/01/31 13:55:20;;;;;;;21.40;10.40;;;;;;;;;;5067440;28;20429;-54
2022/01/31 13:57:47;;;;;;;25.80;11.55;;;;;;;;;;5082774;28;20048;-54
2022/01/31 14:00:13;;;;;;;23.50;8.65;;;;;;;;;;5075940;28;20066;-53
2022/01/31 14:02:40;;;;;;;25.77;10.05;;;;;;;;;;5076378;28;20082;-50
2022/01/31 14:05:26;;;;;;;24.10;9.93;;;;;;;;;;5075832;28;20056;-53
2022/01/31 14:08:13;;;;;;;25.70;11.55;;;;;;;;;;5082559;28;20032;-55
2022/01/31 14:10:39;;;;;;;23.60;9.43;;;;;;;;;;5077456;28;20025;-53
2022/01/31 14:13:15;;;;;;;23.90;10.18;;;;;;;;;;5075858;28;20018;-49
2022/01/31 14:15:44;;;;;;;37.13;15.63;;;;;;;;;;5075507;28;20095;-51
2022/01/31 14:18:13;;;;;;;26.05;12.32;;;;;;;;;;5075552;28;20111;-49
2022/01/31 14:20:39;;;;;;;27.30;13.15;;;;;;;;;;5075469;28;20036;-45
2022/01/31 14:23:06;;;;;;;21.45;9.40;;;;;;;;;;5075281;28;20075;-53
2022/01/31 14:25:40;;;;;;;21.02;10.45;;;;;;;;;;5075231;28;20025;-53
2022/01/31 14:28:06;;;;;;;23.23;12.45;;;;;;;;;;5075411;28;20024;-52
2022/01/31 14:30:34;;;;;;;25.20;11.45;;;;;;;;;;5075307;28;20029;-48
2022/01/31 14:33:05;;;;;;;22.30;9.90;;;;;;;;;;5075340;28;20025;-54
2022/01/31 14:35:32;;;;;;;24.05;13.45;;;;;;;;;;5075952;28;20024;-49
2022/01/31 14:37:59;;;;;;;19.52;10.77;;;;;;;;;;5078167;28;20025;-49
2022/01/31 14:40:51;;;;;;;18.63;8.85;;;;;;;;;;5078006;28;20422;-52
2022/01/31 14:43:19;;;;;;;23.25;10.35;;;;;;;;;;5094064;28;20032;-52
2022/01/31 14:48:58;;;;;;;32.05;13.63;;;;;;;;;;4993326;28;20026;-50
2022/01/31 14:51:26;;;;;;;32.95;14.35;;;;;;;;;;5011655;28;20034;-50
2022/01/31 14:53:58;;;;;;;29.30;12.32;;;;;;;;;;5044253;28;20044;-49
2022/01/31 14:56:25;;;;;;;22.05;11.10;;;;;;;;;;5082095;28;20426;-53
2022/01/31 14:58:52;;;;;;;25.05;11.30;;;;;;;;;;5075233;28;20027;-50
2022/01/31 15:01:18;;;;;;;22.30;10.45;;;;;;;;;;5083227;28;20021;-48
2022/01/31 15:03:44;;;;;;;26.20;10.15;;;;;;;;;;5079832;28;20050;-52
2022/01/31 15:06:10;;;;;;;19.45;7.65;;;;;;;;;;5088835;28;20026;-52
2022/01/31 15:08:37;;;;;;;21.30;10.13;;;;;;;;;;5094583;28;20376;-56